createdAt,value
2018-01-30T00:00:40.371Z,9.03
2018-01-30T00:03:06.829Z,8.43
2018-01-30T00:05:34.134Z,7.23
2018-01-30T00:08:00.562Z,6.80
2018-01-30T00:10:27.027Z,8.17
2018-01-30T00:12:54.226Z,9.63
2018-01-30T00:15:20.906Z,12.47
2018-01-30T00:17:47.313Z,11.80
2018-01-30T00:20:13.746Z,11.90
2018-01-30T00:22:40.171Z,14.23
2018-01-30T00:25:07.417Z,14.50
2018-01-30T00:27:35.295Z,12.90
2018-01-30T00:30:02.636Z,8.20
2018-01-30T00:32:29.120Z,10.90
2018-01-30T00:34:55.611Z,10.63
2018-01-30T00:37:22.079Z,12.50
2018-01-30T00:39:48.510Z,12.73
2018-01-30T00:42:14.954Z,14.37
2018-01-30T00:44:41.366Z,12.77
2018-01-30T00:47:07.842Z,11.40
2018-01-30T00:49:34.222Z,14.27
2018-01-30T00:52:01.399Z,13.97
2018-01-30T00:54:28.541Z,14.40
2018-01-30T00:56:55.727Z,16.70
2018-01-30T00:59:22.885Z,18.60
2018-01-30T01:01:49.408Z,15.57
2018-01-30T01:04:15.857Z,16.23
2018-01-30T01:06:42.365Z,17.27
2018-01-30T01:09:08.855Z,15.10
2018-01-30T01:11:36.039Z,16.20
2018-01-30T01:14:02.764Z,13.70
2018-01-30T01:16:29.263Z,15.37
2018-01-30T01:18:55.677Z,15.20
2018-01-30T01:21:22.158Z,15.60
2018-01-30T01:23:48.619Z,16.07
2018-01-30T01:26:15.062Z,15.90
2018-01-30T01:28:41.534Z,14.67
2018-01-30T01:31:07.953Z,13.43
2018-01-30T01:33:34.404Z,17.10
2018-01-30T01:36:00.830Z,18.37
2018-01-30T01:38:27.280Z,20.30
2018-01-30T01:40:53.715Z,18.00
2018-01-30T01:43:20.845Z,17.90
2018-01-30T01:45:47.379Z,17.50
2018-01-30T01:48:13.814Z,19.73
2018-01-30T01:50:41.042Z,17.73
2018-01-30T01:53:07.609Z,17.70
2018-01-30T01:55:34.365Z,15.37
2018-01-30T01:58:01.824Z,14.80
2018-01-30T02:00:28.365Z,12.10
2018-01-30T02:02:54.800Z,15.10
2018-01-30T02:05:21.246Z,14.07
2018-01-30T02:07:47.951Z,14.20
2018-01-30T02:10:14.397Z,14.33
2018-01-30T02:12:40.876Z,13.20
2018-01-30T02:15:07.292Z,15.67
2018-01-30T02:17:34.511Z,15.70
2018-01-30T02:20:00.983Z,15.33
2018-01-30T02:22:27.460Z,15.00
2018-01-30T02:24:53.869Z,13.30
2018-01-30T02:27:20.329Z,11.17
2018-01-30T02:29:46.767Z,12.90
2018-01-30T02:32:13.196Z,14.33
2018-01-30T02:34:40.360Z,13.67
2018-01-30T02:37:06.858Z,16.93
2018-01-30T02:39:33.266Z,14.57
2018-01-30T02:42:01.221Z,12.80
2018-01-30T02:44:27.634Z,10.03
2018-01-30T02:46:54.239Z,13.93
2018-01-30T02:49:20.645Z,13.27
2018-01-30T02:51:47.054Z,10.50
2018-01-30T02:54:13.555Z,15.10
2018-01-30T02:56:39.990Z,13.57
2018-01-30T02:59:06.418Z,15.47
2018-01-30T03:01:33.590Z,12.40
2018-01-30T03:04:00.050Z,12.57
2018-01-30T03:06:26.991Z,16.03
2018-01-30T03:08:53.476Z,16.67
2018-01-30T03:11:20.034Z,16.47
2018-01-30T03:13:46.461Z,16.83
2018-01-30T03:16:12.910Z,20.53
2018-01-30T03:18:39.341Z,14.47
2018-01-30T03:21:05.761Z,16.27
2018-01-30T03:23:32.219Z,13.47
2018-01-30T03:25:58.651Z,16.97
2018-01-30T03:28:25.156Z,13.40
2018-01-30T03:30:51.618Z,12.90
2018-01-30T03:33:18.067Z,12.50
2018-01-30T03:35:44.498Z,11.80
2018-01-30T03:38:11.702Z,11.70
2018-01-30T03:40:38.144Z,11.63
2018-01-30T03:43:04.577Z,12.00
2018-01-30T03:45:31.002Z,12.70
2018-01-30T03:47:58.457Z,12.40
2018-01-30T03:50:25.636Z,13.27
2018-01-30T03:52:52.098Z,14.30
2018-01-30T03:55:18.615Z,12.50
2018-01-30T03:57:45.034Z,12.37
2018-01-30T04:00:11.460Z,11.17
2018-01-30T04:02:37.864Z,12.50
2018-01-30T04:05:04.369Z,11.40
2018-01-30T04:07:30.873Z,13.40
2018-01-30T04:09:57.513Z,14.30
2018-01-30T04:12:23.922Z,12.20
2018-01-30T04:14:50.388Z,10.70
2018-01-30T04:17:16.813Z,11.73
2018-01-30T04:19:43.986Z,11.63
2018-01-30T04:22:10.471Z,10.50
2018-01-30T04:24:37.734Z,11.87
2018-01-30T04:27:04.268Z,10.60
2018-01-30T04:29:30.696Z,11.13
2018-01-30T04:31:57.102Z,11.93
2018-01-30T04:34:23.616Z,11.70
2018-01-30T04:36:50.030Z,10.70
2018-01-30T04:39:16.446Z,12.50
2018-01-30T04:41:42.871Z,10.97
2018-01-30T04:44:09.351Z,10.60
2018-01-30T04:46:35.808Z,10.50
2018-01-30T04:49:02.782Z,10.83
2018-01-30T04:51:30.004Z,12.23
2018-01-30T04:53:56.467Z,12.87
2018-01-30T04:56:22.938Z,13.10
2018-01-30T04:58:49.363Z,14.07
2018-01-30T05:01:15.827Z,13.43
2018-01-30T05:03:43.014Z,12.57
2018-01-30T05:06:09.533Z,13.40
2018-01-30T05:08:35.967Z,13.03
2018-01-30T05:11:02.426Z,14.20
2018-01-30T05:13:28.861Z,14.60
2018-01-30T05:15:55.262Z,14.03
2018-01-30T05:18:21.681Z,14.97
2018-01-30T05:20:48.905Z,15.00
2018-01-30T05:23:15.364Z,14.53
2018-01-30T05:25:42.576Z,17.30
2018-01-30T05:28:09.077Z,20.50
2018-01-30T05:30:35.560Z,18.30
2018-01-30T05:33:02.052Z,16.53
2018-01-30T05:35:28.477Z,16.80
2018-01-30T05:37:54.923Z,16.73
2018-01-30T05:40:22.104Z,17.00
2018-01-30T05:42:49.298Z,16.50
2018-01-30T05:45:15.730Z,15.47
2018-01-30T05:47:42.251Z,15.30
2018-01-30T05:50:09.393Z,18.57
2018-01-30T05:52:35.874Z,15.80
2018-01-30T05:55:02.639Z,14.27
2018-01-30T05:57:29.063Z,14.80
2018-01-30T05:59:55.595Z,12.77
2018-01-30T06:02:22.102Z,14.10
2018-01-30T06:04:48.561Z,14.70
2018-01-30T06:07:14.989Z,14.20
2018-01-30T06:09:41.453Z,15.60
2018-01-30T06:12:07.885Z,14.73
2018-01-30T06:14:35.423Z,15.93
2018-01-30T06:17:01.897Z,16.07
2018-01-30T06:19:28.487Z,18.27
2018-01-30T06:21:55.797Z,15.30
2018-01-30T06:24:22.684Z,16.80
2018-01-30T06:26:49.993Z,16.83
2018-01-30T06:29:16.746Z,19.63
2018-01-30T06:31:43.247Z,19.00
2018-01-30T06:34:10.514Z,17.70
2018-01-30T06:36:37.753Z,18.67
2018-01-30T06:39:04.259Z,16.40
2018-01-30T06:41:31.026Z,18.40
2018-01-30T06:43:57.586Z,19.50
2018-01-30T06:46:25.157Z,20.33
2018-01-30T06:48:51.701Z,20.60
2018-01-30T06:51:18.373Z,22.30
2018-01-30T06:53:45.094Z,21.30
2018-01-30T06:56:11.990Z,19.10
2018-01-30T06:58:38.804Z,19.47
2018-01-30T07:01:05.966Z,19.87
2018-01-30T07:03:33.724Z,19.83
2018-01-30T07:06:00.298Z,18.37
2018-01-30T07:08:26.882Z,19.27
2018-01-30T07:10:53.578Z,20.00
2018-01-30T07:13:20.832Z,19.70
2018-01-30T07:15:47.737Z,20.90
2018-01-30T07:18:14.281Z,19.63
2018-01-30T07:20:41.599Z,20.97
2018-01-30T07:23:08.212Z,17.87
2018-01-30T07:25:35.812Z,20.00
2018-01-30T07:28:03.111Z,19.23
2018-01-30T07:30:29.715Z,20.20
2018-01-30T07:32:56.343Z,22.23
2018-01-30T07:35:22.857Z,22.80
2018-01-30T07:37:49.459Z,24.70
2018-01-30T07:40:16.877Z,22.50
2018-01-30T07:42:43.489Z,25.00
2018-01-30T07:45:10.798Z,21.83
2018-01-30T07:47:37.322Z,25.30
2018-01-30T07:50:04.619Z,22.40
2018-01-30T07:52:31.210Z,26.77
2018-01-30T07:54:58.431Z,26.47
2018-01-30T07:57:25.122Z,25.60
2018-01-30T07:59:52.435Z,24.00
2018-01-30T08:02:19.428Z,26.17
2018-01-30T08:04:47.052Z,22.80
2018-01-30T08:07:14.370Z,29.60
2018-01-30T08:09:41.071Z,31.27
2018-01-30T08:12:07.675Z,27.80
2018-01-30T08:14:34.290Z,31.17
2018-01-30T08:17:02.046Z,28.57
2018-01-30T08:19:29.357Z,28.93
2018-01-30T08:21:55.984Z,33.00
2018-01-30T08:24:24.623Z,35.77
2018-01-30T08:26:52.102Z,32.47
2018-01-30T08:29:18.674Z,34.27
2018-01-30T08:31:46.230Z,29.87
2018-01-30T08:34:13.012Z,35.40
2018-01-30T08:36:41.469Z,39.17
2018-01-30T08:39:08.087Z,33.50
2018-01-30T08:41:35.643Z,34.90
2018-01-30T08:44:03.703Z,38.50
2018-01-30T08:46:30.637Z,39.30
2018-01-30T08:48:58.711Z,37.07
2018-01-30T08:51:25.890Z,35.10
2018-01-30T08:53:53.361Z,35.60
2018-01-30T08:56:19.933Z,32.37
2018-01-30T08:58:46.843Z,33.40
2018-01-30T09:01:14.140Z,40.27
2018-01-30T09:03:45.169Z,34.70
2018-01-30T09:06:12.388Z,29.03
2018-01-30T09:08:38.886Z,33.87
2018-01-30T09:11:06.190Z,36.70
2018-01-30T09:13:33.182Z,31.77
2018-01-30T09:15:59.879Z,30.60
2018-01-30T09:18:26.706Z,29.10
2018-01-30T09:20:54.027Z,32.20
2018-01-30T09:23:20.733Z,33.73
2018-01-30T09:25:47.370Z,32.30
2018-01-30T09:28:14.863Z,26.73
2018-01-30T09:30:41.521Z,32.83
2018-01-30T09:33:08.934Z,32.00
2018-01-30T09:35:36.181Z,35.83
2018-01-30T09:38:02.871Z,35.17
2018-01-30T09:40:29.388Z,34.77
2018-01-30T09:42:55.966Z,38.03
2018-01-30T09:45:23.233Z,34.70
2018-01-30T09:47:49.935Z,34.67
2018-01-30T09:50:16.498Z,37.33
2018-01-30T09:52:43.810Z,37.20
2018-01-30T09:55:10.431Z,37.50
2018-01-30T09:57:37.730Z,36.47
2018-01-30T10:00:05.180Z,41.13
2018-01-30T10:02:31.675Z,35.07
2018-01-30T10:04:58.502Z,36.60
2018-01-30T10:07:25.743Z,37.87
2018-01-30T10:10:08.366Z,35.10
2018-01-30T10:12:35.024Z,36.50
2018-01-30T10:15:02.371Z,38.73
2018-01-30T10:17:29.300Z,39.00
2018-01-30T10:19:56.016Z,39.50
2018-01-30T10:22:22.586Z,37.30
2018-01-30T10:24:49.324Z,42.27
2018-01-30T10:27:16.775Z,39.80
2018-01-30T10:29:44.158Z,41.63
2018-01-30T10:32:11.437Z,43.00
2018-01-30T10:34:38.884Z,39.43
2018-01-30T10:37:05.505Z,39.70
2018-01-30T10:39:32.113Z,38.00
2018-01-30T10:41:58.738Z,37.83
2018-01-30T10:44:25.363Z,37.23
2018-01-30T10:46:51.847Z,37.27
2018-01-30T10:49:18.430Z,32.30
2018-01-30T10:51:45.089Z,35.37
2018-01-30T10:54:11.566Z,34.70
2018-01-30T10:56:38.145Z,35.40
2018-01-30T10:59:05.406Z,32.43
2018-01-30T11:01:32.166Z,29.67
2018-01-30T11:03:58.935Z,29.33
2018-01-30T11:06:25.486Z,30.67
2018-01-30T11:08:52.086Z,27.57
2018-01-30T11:11:18.890Z,28.20
2018-01-30T11:13:45.816Z,22.40
2018-01-30T11:16:12.560Z,25.33
2018-01-30T11:18:39.250Z,22.00
2018-01-30T11:21:05.776Z,23.37
2018-01-30T11:23:32.416Z,20.77
2018-01-30T11:25:59.719Z,24.37
2018-01-30T11:28:27.084Z,21.53
2018-01-30T11:30:53.725Z,21.80
2018-01-30T11:33:20.412Z,18.80
2018-01-30T11:35:47.004Z,19.90
2018-01-30T11:38:14.713Z,20.23
2018-01-30T11:40:41.270Z,20.77
2018-01-30T11:43:08.626Z,19.80
2018-01-30T11:45:35.501Z,20.07
2018-01-30T11:48:02.076Z,19.83
2018-01-30T11:50:28.700Z,21.67
2018-01-30T11:52:55.740Z,21.23
2018-01-30T11:55:22.390Z,16.67
2018-01-30T11:57:49.022Z,18.47
2018-01-30T12:00:16.321Z,17.87
2018-01-30T12:02:43.488Z,20.40
2018-01-30T12:05:10.197Z,19.50
2018-01-30T12:07:36.948Z,20.37
2018-01-30T12:10:04.359Z,18.63
2018-01-30T12:12:30.969Z,18.80
2018-01-30T12:14:57.815Z,16.53
2018-01-30T12:17:24.423Z,15.80
2018-01-30T12:19:51.137Z,15.50
2018-01-30T12:22:17.809Z,15.10
2018-01-30T12:24:45.152Z,15.40
2018-01-30T12:27:12.907Z,16.57
2018-01-30T12:29:40.588Z,14.93
2018-01-30T12:32:08.023Z,15.93
2018-01-30T12:34:34.635Z,14.30
2018-01-30T12:37:01.814Z,14.63
2018-01-30T12:39:28.453Z,14.37
2018-01-30T12:41:55.750Z,14.17
2018-01-30T12:44:23.179Z,14.50
2018-01-30T12:46:49.861Z,15.30
2018-01-30T12:49:17.235Z,15.73
2018-01-30T12:51:43.778Z,13.07
2018-01-30T12:54:10.387Z,14.47
2018-01-30T12:56:37.158Z,14.30
2018-01-30T12:59:03.693Z,13.10
2018-01-30T13:01:30.304Z,14.27
2018-01-30T13:03:56.829Z,12.77
2018-01-30T13:06:23.427Z,12.80
2018-01-30T13:08:49.961Z,13.07
2018-01-30T13:11:17.317Z,11.73
2018-01-30T13:13:43.863Z,13.10
2018-01-30T13:16:11.246Z,15.60
2018-01-30T13:18:38.039Z,15.00
2018-01-30T13:21:04.626Z,13.90
2018-01-30T13:23:31.105Z,11.93
2018-01-30T13:25:57.750Z,14.07
2018-01-30T13:28:24.748Z,12.37
2018-01-30T13:30:52.396Z,13.13
2018-01-30T13:33:19.064Z,14.57
2018-01-30T13:35:45.566Z,11.73
2018-01-30T13:38:12.150Z,12.77
2018-01-30T13:40:38.707Z,11.63
2018-01-30T13:43:05.298Z,12.77
2018-01-30T13:45:32.125Z,10.30
2018-01-30T13:47:58.909Z,11.53
2018-01-30T13:50:25.860Z,11.50
2018-01-30T13:52:52.926Z,11.73
2018-01-30T13:55:20.987Z,11.17
2018-01-30T13:57:47.549Z,9.37
2018-01-30T14:00:14.086Z,9.47
2018-01-30T14:02:40.636Z,8.73
2018-01-30T14:05:07.302Z,11.20
2018-01-30T14:07:34.008Z,9.67
2018-01-30T14:10:01.345Z,8.40
2018-01-30T14:12:28.694Z,8.87
2018-01-30T14:14:57.386Z,8.50
2018-01-30T14:17:23.967Z,9.33
2018-01-30T14:19:51.473Z,8.83
2018-01-30T14:22:18.091Z,9.17
2018-01-30T14:24:44.798Z,8.77
2018-01-30T14:27:12.196Z,10.10
2018-01-30T14:29:40.327Z,8.90
2018-01-30T14:32:06.974Z,7.97
2018-01-30T14:34:33.609Z,8.77
2018-01-30T14:37:00.229Z,9.70
2018-01-30T14:39:26.850Z,8.57
2018-01-30T14:41:53.351Z,9.13
2018-01-30T14:44:19.916Z,9.60
2018-01-30T14:46:46.470Z,10.03
2018-01-30T14:49:12.987Z,7.87
2018-01-30T14:51:39.631Z,8.20
2018-01-30T14:54:06.343Z,6.37
2018-01-30T14:56:32.932Z,7.30
2018-01-30T14:59:00.205Z,7.30
2018-01-30T15:01:27.592Z,7.20
2018-01-30T15:03:54.939Z,8.73
2018-01-30T15:06:21.434Z,7.20
2018-01-30T15:08:48.237Z,7.17
2018-01-30T15:11:14.883Z,8.40
2018-01-30T15:13:41.413Z,8.03
2018-01-30T15:16:07.962Z,6.27
2018-01-30T15:18:34.721Z,8.27
2018-01-30T15:21:02.001Z,7.93
2018-01-30T15:23:28.580Z,8.70
2018-01-30T15:25:55.079Z,7.07
2018-01-30T15:28:22.347Z,7.87
2018-01-30T15:30:48.916Z,8.13
2018-01-30T15:33:15.444Z,8.87
2018-01-30T15:35:42.062Z,8.50
2018-01-30T15:38:08.642Z,7.73
2018-01-30T15:40:35.275Z,7.17
2018-01-30T15:43:02.582Z,7.47
2018-01-30T15:45:29.063Z,8.10
2018-01-30T15:47:55.844Z,8.00
2018-01-30T15:50:23.083Z,7.83
2018-01-30T15:52:49.780Z,8.97
2018-01-30T15:55:17.119Z,9.07
2018-01-30T15:57:44.543Z,8.97
2018-01-30T16:00:11.134Z,9.20
2018-01-30T16:02:38.754Z,9.27
2018-01-30T16:05:05.334Z,8.50
2018-01-30T16:07:32.031Z,7.20
2018-01-30T16:09:59.413Z,8.27
2018-01-30T16:12:26.200Z,7.93
2018-01-30T16:14:52.891Z,9.27
2018-01-30T16:17:19.876Z,8.80
2018-01-30T16:19:46.442Z,8.87
2018-01-30T16:22:12.916Z,10.17
2018-01-30T16:24:39.539Z,9.93
2018-01-30T16:27:06.207Z,9.40
2018-01-30T16:29:34.346Z,10.50
2018-01-30T16:32:00.976Z,10.27
2018-01-30T16:34:27.699Z,9.97
2018-01-30T16:36:54.334Z,11.33
2018-01-30T16:39:20.989Z,11.87
2018-01-30T16:41:47.582Z,9.80
2018-01-30T16:44:14.150Z,11.73
2018-01-30T16:46:40.917Z,14.07
2018-01-30T16:49:08.631Z,12.10
2018-01-30T16:51:35.978Z,12.43
2018-01-30T16:54:02.662Z,13.90
2018-01-30T16:56:29.876Z,14.07
2018-01-30T16:58:56.356Z,15.30
2018-01-30T17:01:22.767Z,14.57
2018-01-30T17:03:49.225Z,15.10
2018-01-30T17:06:15.691Z,21.20
2018-01-30T17:08:42.309Z,19.93
2018-01-30T17:11:08.855Z,17.57
2018-01-30T17:13:35.276Z,19.93
2018-01-30T17:16:01.777Z,17.57
2018-01-30T17:18:28.220Z,16.40
2018-01-30T17:20:56.192Z,16.07
2018-01-30T17:23:22.597Z,16.57
2018-01-30T17:25:49.089Z,19.97
2018-01-30T17:28:16.266Z,18.10
2018-01-30T17:30:43.468Z,19.50
2018-01-30T17:33:09.877Z,17.40
2018-01-30T17:35:37.066Z,18.57
2018-01-30T17:38:04.168Z,18.57
2018-01-30T17:40:31.372Z,18.23
2018-01-30T17:42:58.595Z,18.40
2018-01-30T17:45:25.014Z,17.90
2018-01-30T17:47:51.722Z,19.30
2018-01-30T17:50:18.182Z,21.77
2018-01-30T17:52:45.155Z,20.97
2018-01-30T17:55:11.632Z,20.77
2018-01-30T17:57:38.149Z,18.60
2018-01-30T18:00:04.798Z,19.17
2018-01-30T18:02:31.275Z,19.57
2018-01-30T18:04:57.706Z,19.20
2018-01-30T18:07:24.127Z,17.87
2018-01-30T18:09:50.570Z,18.97
2018-01-30T18:12:17.136Z,17.50
2018-01-30T18:14:43.619Z,16.90
2018-01-30T18:17:10.079Z,17.67
2018-01-30T18:19:36.607Z,15.57
2018-01-30T18:22:04.552Z,15.33
2018-01-30T18:24:31.084Z,16.17
2018-01-30T18:26:57.546Z,16.20
2018-01-30T18:29:24.045Z,14.07
2018-01-30T18:31:50.618Z,14.70
2018-01-30T18:34:17.146Z,14.00
2018-01-30T18:36:43.698Z,15.17
2018-01-30T18:39:10.139Z,12.67
2018-01-30T18:41:36.609Z,12.93
2018-01-30T18:44:04.362Z,12.57
2018-01-30T18:46:31.034Z,12.93
2018-01-30T18:48:57.482Z,12.70
2018-01-30T18:51:23.998Z,12.30
2018-01-30T18:53:50.513Z,13.70
2018-01-30T18:56:17.730Z,15.40
2018-01-30T18:58:44.197Z,13.60
2018-01-30T19:01:10.595Z,13.60
2018-01-30T19:03:37.061Z,14.17
2018-01-30T19:06:04.124Z,12.90
2018-01-30T19:08:30.654Z,13.70
2018-01-30T19:10:57.842Z,15.17
2018-01-30T19:13:25.019Z,12.97
2018-01-30T19:15:51.499Z,12.47
2018-01-30T19:18:18.019Z,12.40
2018-01-30T19:20:44.560Z,14.47
2018-01-30T19:23:11.592Z,11.07
2018-01-30T19:25:38.133Z,13.50
2018-01-30T19:28:04.971Z,12.87
2018-01-30T19:30:32.303Z,14.80
2018-01-30T19:32:59.841Z,10.97
2018-01-30T19:35:27.783Z,12.13
2018-01-30T19:37:54.258Z,11.47
2018-01-30T19:40:21.452Z,13.37
2018-01-30T19:42:47.894Z,13.03
2018-01-30T19:45:14.427Z,13.07
2018-01-30T19:47:41.627Z,14.30
2018-01-30T19:50:08.132Z,14.90
2018-01-30T19:52:35.416Z,14.47
2018-01-30T19:55:01.881Z,15.43
2018-01-30T19:57:28.332Z,14.13
2018-01-30T19:59:54.798Z,14.20
2018-01-30T20:02:22.102Z,15.40
2018-01-30T20:04:48.570Z,15.03
2018-01-30T20:07:15.045Z,13.10
2018-01-30T20:09:41.597Z,14.23
2018-01-30T20:12:08.842Z,14.17
2018-01-30T20:14:35.338Z,14.77
2018-01-30T20:17:01.853Z,12.77
2018-01-30T20:19:29.081Z,13.77
2018-01-30T20:21:57.045Z,15.17
2018-01-30T20:24:23.453Z,15.77
2018-01-30T20:26:50.753Z,14.60
2018-01-30T20:29:17.336Z,15.03
2018-01-30T20:31:43.767Z,15.57
2018-01-30T20:34:10.260Z,16.47
2018-01-30T20:36:36.766Z,16.80
2018-01-30T20:39:03.360Z,18.77
2018-01-30T20:41:30.658Z,17.90
2018-01-30T20:43:57.107Z,16.77
2018-01-30T20:46:23.593Z,18.47
2018-01-30T20:48:50.778Z,16.10
2018-01-30T20:51:17.250Z,14.90
2018-01-30T20:53:43.706Z,15.27
2018-01-30T20:56:10.197Z,14.07
2018-01-30T20:58:36.692Z,14.40
2018-01-30T21:01:03.352Z,12.87
2018-01-30T21:03:29.887Z,10.83
2018-01-30T21:05:56.370Z,11.27
2018-01-30T21:08:23.653Z,11.33
2018-01-30T21:10:50.074Z,11.00
2018-01-30T21:13:17.251Z,12.13
2018-01-30T21:15:43.807Z,12.07
2018-01-30T21:18:10.313Z,9.90
2018-01-30T21:20:37.561Z,9.00
2018-01-30T21:23:04.055Z,9.50
2018-01-30T21:25:30.517Z,10.60
2018-01-30T21:27:56.980Z,11.17
2018-01-30T21:30:23.441Z,10.57
2018-01-30T21:32:49.885Z,9.33
2018-01-30T21:35:16.384Z,11.83
2018-01-30T21:37:42.885Z,9.43
2018-01-30T21:40:09.698Z,8.77
2018-01-30T21:42:36.226Z,8.67
2018-01-30T21:45:02.861Z,7.30
2018-01-30T21:47:29.327Z,7.80
2018-01-30T21:49:55.801Z,7.63
2018-01-30T21:52:22.965Z,6.90
2018-01-30T21:54:49.431Z,6.70
2018-01-30T21:57:15.902Z,6.63
2018-01-30T21:59:42.346Z,6.50
2018-01-30T22:02:09.146Z,6.00
2018-01-30T22:04:35.705Z,7.20
2018-01-30T22:07:02.138Z,6.63
2018-01-30T22:09:29.372Z,6.03
2018-01-30T22:11:55.805Z,5.87
2018-01-30T22:14:22.277Z,5.27
2018-01-30T22:16:48.762Z,6.20
2018-01-30T22:19:15.243Z,5.90
2018-01-30T22:21:41.684Z,6.60
2018-01-30T22:24:08.150Z,5.67
2018-01-30T22:26:34.601Z,6.23
2018-01-30T22:29:01.016Z,5.70
2018-01-30T22:31:29.019Z,6.03
2018-01-30T22:33:55.443Z,4.67
2018-01-30T22:36:21.921Z,5.00
2018-01-30T22:38:49.130Z,5.70
2018-01-30T22:41:15.580Z,4.40
2018-01-30T22:43:42.054Z,4.33
2018-01-30T22:46:08.466Z,5.10
